Time;durP1;ratioP1;P1;durP2;ratioP2;P2;SDS_P1;SDS_P2;PMS_P1;PMS_P2;Temp;Humidity;BMP_temperature;BMP_pressure;BME280_temperature;BME280_humidity;BME280_pressure;Samples;Min_cycle;Max_cycle;Signal;HPM_P1;HPM_P2
2022/12/02 06:16:56;;;;;;;9.50;4.67;;;;;;;-0.02;61.89;101885.00;1852633;76;22641;-74
2022/12/02 06:19:39;;;;;;;10.88;5.47;;;;;;;0.06;61.28;101888.16;1860220;77;20903;-72
2022/12/02 06:22:29;;;;;;;11.00;5.03;;;;;;;0.10;60.60;101889.52;1847592;77;21626;-73
2022/12/02 06:24:57;;;;;;;7.35;3.98;;;;;;;0.16;60.07;101888.87;1854648;77;20987;-73
2022/12/02 06:27:24;;;;;;;10.15;5.05;;;;;;;0.25;59.82;101891.56;1860602;77;20867;-73
2022/12/02 06:29:57;;;;;;;9.33;5.00;;;;;;;0.28;59.43;101884.18;1860112;77;20963;-73
2022/12/02 06:32:28;;;;;;;9.78;5.03;;;;;;;0.34;59.11;101889.31;1860307;77;20924;-74
2022/12/02 06:34:54;;;;;;;10.90;5.50;;;;;;;0.41;58.84;101889.02;1859705;77;21825;-72
2022/12/02 06:37:25;;;;;;;11.03;5.70;;;;;;;0.45;58.63;101886.39;1860229;77;20844;-73
2022/12/02 06:39:57;;;;;;;11.55;5.90;;;;;;;0.50;58.48;101891.20;1858991;77;21466;-74
2022/12/02 06:42:35;;;;;;;13.50;5.53;;;;;;;0.53;58.20;101893.02;1860607;77;20952;-72
2022/12/02 06:45:22;;;;;;;12.23;6.58;;;;;;;0.58;57.93;101901.23;1859907;77;20999;-74
2022/12/02 06:48:06;;;;;;;11.95;6.00;;;;;;;0.62;57.81;101897.30;1860291;77;21226;-73
2022/12/02 06:50:38;;;;;;;10.25;6.00;;;;;;;0.62;57.41;101899.11;1822770;77;21015;-73
2022/12/02 06:53:38;;;;;;;12.00;6.05;;;;;;;0.63;57.28;101895.52;1859636;77;21003;-73
2022/12/02 06:56:23;;;;;;;12.45;6.40;;;;;;;0.64;57.21;101896.66;1858646;77;21062;-73
2022/12/02 06:59:03;;;;;;;11.48;6.30;;;;;;;0.67;57.18;101896.84;1860401;76;20919;-73
2022/12/02 07:01:37;;;;;;;12.30;6.15;;;;;;;0.68;56.99;101901.11;1830616;77;21238;-73
2022/12/02 07:04:40;;;;;;;10.25;5.47;;;;;;;0.72;56.92;101901.62;1826869;78;20963;-73
2022/12/02 07:07:23;;;;;;;9.55;5.45;;;;;;;0.77;56.83;101904.11;1793294;79;20999;-74
2022/12/02 07:10:06;;;;;;;9.40;5.17;;;;;;;0.84;56.67;101905.12;1793955;80;21006;-74
2022/12/02 07:12:38;;;;;;;12.63;6.40;;;;;;;0.89;56.56;101904.16;1800328;78;21014;-74
2022/12/02 07:15:28;;;;;;;12.70;6.53;;;;;;;0.94;56.45;101908.44;1827250;78;21102;-73
2022/12/02 07:18:17;;;;;;;10.68;6.40;;;;;;;0.75;56.77;101901.30;1829926;78;20892;-72
2022/12/02 07:20:44;;;;;;;10.53;6.25;;;;;;;1.04;56.62;101896.95;1828405;78;21022;-73
2022/12/02 07:23:25;;;;;;;14.55;6.55;;;;;;;1.14;56.21;101901.08;1826382;78;20955;-73
2022/12/02 07:25:55;;;;;;;13.83;6.42;;;;;;;1.23;56.07;101901.11;1825613;78;21543;-73
2022/12/02 07:28:39;;;;;;;13.08;5.95;;;;;;;1.28;55.93;101902.75;1826169;78;21164;-73
2022/12/02 07:31:20;;;;;;;13.03;6.17;;;;;;;1.32;55.48;101902.27;1824909;78;20999;-73
2022/12/02 07:33:46;;;;;;;11.57;6.28;;;;;;;1.35;55.46;101899.31;1825855;78;21002;-73
2022/12/02 07:36:12;;;;;;;12.53;6.40;;;;;;;1.37;55.37;101901.77;1825718;78;20979;-73
2022/12/02 07:38:39;;;;;;;12.47;6.05;;;;;;;1.40;55.28;101894.87;1825991;78;21521;-74
2022/12/02 07:41:06;;;;;;;11.95;6.17;;;;;;;1.45;55.04;101890.42;1825543;78;21230;-73
2022/12/02 07:43:32;;;;;;;11.10;5.85;;;;;;;1.50;54.97;101891.58;1825722;78;21477;-73
2022/12/02 07:45:59;;;;;;;11.83;6.12;;;;;;;1.57;54.91;101898.33;1825390;78;20963;-71
2022/12/02 07:48:26;;;;;;;10.58;5.00;;;;;;;1.62;54.75;101896.03;1825851;78;21050;-71
2022/12/02 07:50:53;;;;;;;11.03;4.80;;;;;;;1.65;54.56;101891.76;1825651;78;21470;-72
2022/12/02 07:53:19;;;;;;;8.80;4.95;;;;;;;1.67;54.31;101900.80;1826145;78;21145;-73
2022/12/02 07:55:46;;;;;;;9.13;4.75;;;;;;;1.77;54.29;101896.18;1825360;78;21070;-73
2022/12/02 07:58:13;;;;;;;9.20;4.78;;;;;;;1.86;54.20;101898.64;1825906;78;20959;-72
2022/12/02 08:00:40;;;;;;;7.87;4.15;;;;;;;1.99;54.16;101906.05;1825736;78;20986;-73
2022/12/02 08:03:07;;;;;;;9.15;4.12;;;;;;;2.04;53.29;101902.42;1825654;78;21033;-72
2022/12/02 08:05:33;;;;;;;6.85;3.80;;;;;;;2.07;53.30;101902.56;1825397;78;21147;-72
2022/12/02 08:08:00;;;;;;;7.28;3.70;;;;;;;2.07;52.86;101900.77;1814308;79;21007;-73
2022/12/02 08:10:27;;;;;;;6.90;3.52;;;;;;;2.13;52.67;101903.71;1814063;79;20992;-72
2022/12/02 08:12:54;;;;;;;8.00;3.67;;;;;;;2.14;52.31;101904.03;1814312;79;20943;-71
2022/12/02 08:15:21;;;;;;;6.55;3.50;;;;;;;2.14;52.04;101902.70;1813915;79;20983;-72
2022/12/02 08:17:47;;;;;;;8.33;3.90;;;;;;;2.14;51.88;101904.03;1814231;79;21529;-71
2022/12/02 08:20:15;;;;;;;8.58;3.33;;;;;;;2.16;51.77;101903.38;1814021;79;21407;-71
2022/12/02 08:22:42;;;;;;;8.08;3.87;;;;;;;2.18;51.56;101906.68;1814196;79;21027;-71
2022/12/02 08:25:11;;;;;;;7.42;3.75;;;;;;;2.19;51.82;101901.73;1813807;77;20995;-74
2022/12/02 08:27:39;;;;;;;8.73;3.52;;;;;;;2.27;51.88;101895.95;1813328;79;20944;-76
2022/12/02 08:30:08;;;;;;;7.55;3.67;;;;;;;2.40;51.75;101903.30;1813919;79;21140;-71
2022/12/02 08:32:38;;;;;;;7.75;3.85;;;;;;;2.44;51.25;101890.13;1814308;79;21458;-71
2022/12/02 08:35:05;;;;;;;8.15;4.10;;;;;;;2.44;51.28;101894.08;1814205;79;21043;-70
2022/12/02 08:37:32;;;;;;;7.05;3.60;;;;;;;2.45;51.40;101889.62;1782933;79;20987;-71
2022/12/02 08:39:59;;;;;;;6.95;3.83;;;;;;;2.46;51.10;101889.44;1813931;79;21607;-70
2022/12/02 08:42:26;;;;;;;8.70;3.55;;;;;;;2.47;50.88;101889.78;1814412;79;21124;-71
2022/12/02 08:44:52;;;;;;;7.42;3.45;;;;;;;2.47;50.87;101881.88;1813811;79;21066;-70
2022/12/02 08:47:19;;;;;;;7.95;3.80;;;;;;;2.51;50.50;101881.84;1815609;79;21039;-70
2022/12/02 08:49:45;;;;;;;7.87;3.80;;;;;;;2.54;50.66;101877.55;1818036;79;21054;-76
2022/12/02 08:52:12;;;;;;;7.08;3.47;;;;;;;2.50;50.06;101878.89;1817528;79;20852;-70
2022/12/02 08:54:42;;;;;;;6.58;3.70;;;;;;;2.48;49.85;101877.41;1815045;79;21191;-71
2022/12/02 08:57:08;;;;;;;9.83;4.28;;;;;;;2.42;49.90;101882.05;1809029;79;21046;-71
2022/12/02 08:59:35;;;;;;;6.45;3.50;;;;;;;2.40;50.36;101882.20;1814046;79;21057;-71
2022/12/02 09:02:01;;;;;;;6.35;3.60;;;;;;;2.44;50.30;101875.62;1814138;79;20952;-71
2022/12/02 09:04:29;;;;;;;6.78;3.60;;;;;;;2.46;50.18;101877.56;1814031;78;20987;-71
2022/12/02 09:06:55;;;;;;;7.80;3.40;;;;;;;2.41;49.91;101879.91;1814140;79;21221;-71
2022/12/02 09:09:23;;;;;;;6.67;3.35;;;;;;;2.44;50.29;101880.08;1825574;78;21379;-71
2022/12/02 09:11:50;;;;;;;6.30;3.62;;;;;;;2.49;50.46;101880.37;1825544;78;20947;-70
2022/12/02 09:14:16;;;;;;;5.65;3.40;;;;;;;2.58;50.40;101879.34;1814190;79;20956;-70
2022/12/02 09:16:43;;;;;;;6.87;4.08;;;;;;;2.62;50.05;101879.83;1814287;79;20931;-70
2022/12/02 09:19:11;;;;;;;5.67;3.40;;;;;;;2.60;49.95;101876.05;1814198;79;21521;-70
2022/12/02 09:21:37;;;;;;;7.60;4.03;;;;;;;2.59;49.83;101877.84;1813923;79;20975;-69
2022/12/02 09:24:05;;;;;;;7.08;3.60;;;;;;;2.59;49.97;101871.75;1814261;79;20952;-71
2022/12/02 09:26:33;;;;;;;9.05;4.15;;;;;;;2.61;50.03;101878.19;1814029;79;20991;-70
2022/12/02 09:28:59;;;;;;;9.15;4.25;;;;;;;2.62;50.04;101874.55;1814122;79;21031;-70
2022/12/02 09:31:26;;;;;;;7.60;3.95;;;;;;;2.66;50.05;101865.29;1814209;79;21132;-71
2022/12/02 09:33:52;;;;;;;8.90;3.77;;;;;;;2.65;49.73;101865.80;1814436;79;20919;-70
2022/12/02 09:36:19;;;;;;;6.53;3.92;;;;;;;2.65;49.74;101865.80;1813790;79;21554;-70
2022/12/02 09:38:46;;;;;;;7.60;4.12;;;;;;;2.62;49.81;101871.91;1814399;79;20995;-70
2022/12/02 09:41:12;;;;;;;8.25;3.98;;;;;;;2.63;50.10;101870.91;1813988;79;21046;-70
2022/12/02 09:43:39;;;;;;;7.58;3.92;;;;;;;2.66;50.25;101871.88;1814542;79;21399;-70
2022/12/02 09:46:06;;;;;;;7.10;3.72;;;;;;;2.67;49.92;101865.14;1813734;79;21030;-70
2022/12/02 09:48:32;;;;;;;8.90;3.70;;;;;;;2.64;49.76;101870.75;1814360;79;21030;-70
2022/12/02 09:50:59;;;;;;;7.60;4.28;;;;;;;2.65;50.02;101868.43;1814006;79;20955;-70
2022/12/02 09:53:32;;;;;;;8.50;4.35;;;;;;;2.66;50.36;101868.74;1814224;79;21023;-71
2022/12/02 09:56:00;;;;;;;6.75;3.60;;;;;;;2.67;50.29;101866.45;1813988;79;21084;-71
2022/12/02 09:58:27;;;;;;;8.05;4.12;;;;;;;2.70;50.53;101868.75;1808903;78;21059;-71
2022/12/02 10:00:55;;;;;;;7.90;4.17;;;;;;;2.73;50.53;101871.05;1775577;79;21085;-70
2022/12/02 13:58:32;;;;;;;12.00;6.77;;;;;;;1.57;56.50;101889.93;1762923;80;22537;-68
2022/12/02 14:00:59;;;;;;;14.68;8.43;;;;;;;1.58;56.05;101895.55;1789916;80;21520;-68
2022/12/02 14:03:26;;;;;;;19.75;9.70;;;;;;;1.55;55.65;101897.69;1781100;80;21159;-67
2022/12/02 14:19:36;;;;;;;16.60;9.33;;;;;;;2.00;54.60;101903.72;1825680;78;22648;-71
2022/12/02 14:22:02;;;;;;;14.80;8.73;;;;;;;1.99;54.17;101902.09;1822546;78;20910;-72
2022/12/02 14:24:29;;;;;;;15.23;8.50;;;;;;;1.93;54.06;101906.70;1821929;78;21536;-72
2022/12/02 14:26:55;;;;;;;14.55;8.13;;;;;;;1.88;54.11;101910.34;1815448;78;20862;-72
2022/12/02 14:29:22;;;;;;;13.25;7.55;;;;;;;1.87;54.09;101910.00;1840094;77;21470;-72
2022/12/02 14:31:49;;;;;;;15.03;8.13;;;;;;;1.84;53.85;101919.55;1830378;78;21457;-72
2022/12/02 14:34:15;;;;;;;11.25;6.72;;;;;;;1.78;53.77;101921.55;1821722;78;21470;-72
2022/12/02 14:36:42;;;;;;;12.33;7.20;;;;;;;1.71;53.76;101917.91;1821971;78;21241;-73
2022/12/02 14:39:08;;;;;;;12.00;7.05;;;;;;;1.65;53.71;101918.09;1821474;78;20919;-72
2022/12/02 14:41:35;;;;;;;12.70;7.22;;;;;;;1.61;53.73;101913.66;1816916;78;20899;-72
2022/12/02 14:44:01;;;;;;;14.40;7.37;;;;;;;1.59;53.68;101919.56;1801592;79;20944;-72
2022/12/02 14:46:29;;;;;;;12.70;7.17;;;;;;;1.59;53.82;101913.48;1801970;79;21007;-72
2022/12/02 14:48:56;;;;;;;13.15;7.85;;;;;;;1.56;53.46;101918.58;1801418;79;21532;-72
2022/12/02 14:51:23;;;;;;;13.00;7.17;;;;;;;1.54;53.54;101923.67;1801845;79;21046;-73
2022/12/02 14:53:50;;;;;;;12.28;7.75;;;;;;;1.51;53.58;101916.09;1801592;79;21011;-72
2022/12/02 15:12:40;;;;;;;11.47;7.33;;;;;;;1.98;53.07;101917.58;1812145;78;21955;-72
2022/12/02 15:15:08;;;;;;;13.45;7.83;;;;;;;1.93;52.93;101917.24;1755863;81;21418;-72
2022/12/02 15:17:35;;;;;;;13.38;7.75;;;;;;;1.90;52.77;101912.80;1771610;81;21226;-72
2022/12/02 15:20:01;;;;;;;14.28;8.75;;;;;;;1.84;52.55;101926.14;1771613;81;21769;-72
2022/12/02 15:22:29;;;;;;;14.20;8.70;;;;;;;1.78;52.32;101913.66;1755626;81;21043;-73
2022/12/02 15:24:56;;;;;;;15.05;8.80;;;;;;;1.74;52.32;101922.85;1755904;81;21062;-72
2022/12/02 15:27:23;;;;;;;13.95;8.35;;;;;;;1.71;52.48;101925.81;1755766;81;20944;-72
2022/12/02 15:29:50;;;;;;;13.72;8.10;;;;;;;1.69;52.63;101923.36;1755916;81;21662;-72
2022/12/02 15:32:17;;;;;;;17.23;9.45;;;;;;;1.68;52.66;101923.03;1755583;81;21537;-73
2022/12/02 15:34:43;;;;;;;14.60;8.43;;;;;;;1.66;52.78;101925.00;1755927;81;20998;-72
2022/12/02 15:37:10;;;;;;;17.55;9.50;;;;;;;1.65;52.84;101918.09;1755704;81;21059;-73
2022/12/02 15:39:36;;;;;;;14.70;8.23;;;;;;;1.63;52.91;101916.92;1755896;81;21050;-73
2022/12/02 15:42:03;;;;;;;16.07;8.85;;;;;;;1.62;52.95;101918.42;1755641;81;21402;-71
2022/12/02 15:44:30;;;;;;;13.20;7.80;;;;;;;1.61;53.00;101922.02;1755890;81;21077;-73
2022/12/02 15:46:57;;;;;;;16.97;8.93;;;;;;;1.59;53.01;101924.83;1755609;81;21043;-73
2022/12/02 15:49:24;;;;;;;16.05;8.63;;;;;;;1.62;53.06;101924.51;1755878;81;20960;-73
2022/12/02 15:51:50;;;;;;;16.32;9.63;;;;;;;1.62;53.02;101923.69;1755580;81;21027;-72
2022/12/02 15:54:17;;;;;;;16.15;9.18;;;;;;;1.62;53.07;101928.95;1756212;81;21012;-73
2022/12/02 15:56:43;;;;;;;15.85;9.03;;;;;;;1.62;53.09;101925.01;1755463;81;20951;-73
2022/12/02 15:59:10;;;;;;;14.93;8.98;;;;;;;1.61;53.17;101927.29;1755665;81;20968;-73
2022/12/02 16:01:36;;;;;;;15.85;9.15;;;;;;;1.61;53.10;101929.92;1730517;81;21053;-72
2022/12/02 16:04:03;;;;;;;17.37;8.53;;;;;;;1.59;53.03;101930.10;1740753;82;20963;-73
2022/12/02 16:19:06;;;;;;;15.37;9.53;;;;;;;2.04;52.52;101916.92;1830682;76;22605;-77
2022/12/02 16:21:33;;;;;;;22.15;12.23;;;;;;;1.94;52.48;101923.33;1837443;76;21132;-78
2022/12/02 16:23:59;;;;;;;24.50;12.60;;;;;;;1.88;52.48;101924.84;1836255;76;21197;-80
2022/12/02 16:26:26;;;;;;;22.58;12.18;;;;;;;1.88;52.64;101916.94;1832259;78;20932;-82
2022/12/02 16:28:53;;;;;;;25.10;14.35;;;;;;;1.86;52.66;101921.53;1833619;77;20952;-79
2022/12/02 16:31:21;;;;;;;20.48;12.50;;;;;;;1.85;52.55;101922.03;1833619;78;20924;-80
2022/12/02 16:33:48;;;;;;;20.30;13.05;;;;;;;1.82;52.60;101924.18;1833451;77;20916;-81
2022/12/02 16:36:15;;;;;;;20.92;12.28;;;;;;;1.77;52.64;101919.39;1801699;78;23312;-81
2022/12/02 16:38:41;;;;;;;25.75;15.00;;;;;;;1.75;52.68;101921.88;1833477;78;20905;-81
2022/12/02 16:41:08;;;;;;;27.37;14.85;;;;;;;1.66;52.66;101924.18;1825933;77;21554;-82
2022/12/02 16:43:34;;;;;;;25.85;14.70;;;;;;;1.60;52.78;101929.60;1801063;79;20980;-82
2022/12/02 16:46:01;;;;;;;22.73;13.28;;;;;;;1.54;53.07;101926.30;1801323;79;21036;-81
2022/12/02 16:48:28;;;;;;;21.87;13.00;;;;;;;1.52;53.21;101929.11;1801019;79;21214;-82
2022/12/02 16:50:55;;;;;;;21.42;12.80;;;;;;;1.54;53.29;101923.67;1801144;79;21455;-80
2022/12/02 16:53:21;;;;;;;21.52;12.50;;;;;;;1.56;53.29;101928.30;1800719;79;21016;-81
2022/12/02 16:55:48;;;;;;;20.77;11.48;;;;;;;1.57;53.28;101928.11;1800906;79;21078;-82
2022/12/02 16:58:15;;;;;;;21.50;12.53;;;;;;;1.54;53.20;101931.07;1810646;78;20925;-80
2022/12/02 17:00:42;;;;;;;19.82;11.03;;;;;;;1.52;53.36;101930.43;1833694;78;21330;-81
2022/12/02 17:03:08;;;;;;;20.10;9.95;;;;;;;1.50;53.32;101936.34;1822710;77;21054;-82
2022/12/02 17:05:35;;;;;;;17.27;11.22;;;;;;;0.84;54.67;101936.68;1835217;78;20925;-80
2022/12/02 17:08:02;;;;;;;18.15;10.68;;;;;;;0.74;55.03;101937.80;1836453;77;20908;-80
2022/12/02 17:10:32;;;;;;;18.00;11.18;;;;;;;0.68;55.51;101942.69;1836012;77;20992;-81
2022/12/02 17:13:00;;;;;;;18.87;11.57;;;;;;;0.66;55.65;101943.86;1834868;77;21232;-83
2022/12/02 17:15:28;;;;;;;17.95;9.70;;;;;;;0.66;55.78;101942.54;1808130;78;20915;-82
2022/12/02 17:17:55;;;;;;;16.70;10.98;;;;;;;0.65;55.90;101939.55;1769163;81;20960;-82
2022/12/02 17:20:21;;;;;;;20.02;10.78;;;;;;;0.65;55.95;101945.63;1769756;81;21067;-81
2022/12/02 17:22:48;;;;;;;20.20;11.08;;;;;;;0.67;56.11;101945.00;1770338;81;21031;-82
2022/12/02 17:25:15;;;;;;;17.35;9.98;;;;;;;0.72;56.19;101945.01;1770899;81;21273;-81
2022/12/02 17:27:42;;;;;;;16.60;9.85;;;;;;;0.80;56.22;101943.75;1770575;81;20969;-82
2022/12/02 17:30:11;;;;;;;17.77;10.05;;;;;;;1.46;54.89;101941.61;1769454;81;20948;-81
2022/12/02 17:32:38;;;;;;;16.80;9.45;;;;;;;1.55;54.52;101938.00;1783096;79;21340;-80
2022/12/02 17:35:07;;;;;;;16.85;10.55;;;;;;;1.55;54.05;101945.91;1800188;79;20913;-81
2022/12/02 17:37:34;;;;;;;18.60;9.93;;;;;;;1.54;54.05;101941.61;1800055;79;21100;-81
2022/12/02 17:40:00;;;;;;;16.62;10.00;;;;;;;1.53;54.18;101941.78;1800047;79;20877;-82
2022/12/02 17:42:27;;;;;;;17.98;9.98;;;;;;;1.52;54.20;101944.91;1799863;79;21413;-81
2022/12/02 17:44:55;;;;;;;21.42;9.33;;;;;;;1.54;54.25;101946.05;1800117;79;21130;-81
2022/12/02 17:47:22;;;;;;;16.95;10.98;;;;;;;1.56;54.27;101945.41;1799875;79;20992;-83
2022/12/02 17:49:49;;;;;;;18.52;11.85;;;;;;;1.59;54.12;101942.45;1783636;79;21270;-81
2022/12/02 17:52:16;;;;;;;22.75;13.85;;;;;;;1.59;54.12;101941.95;1768328;81;21086;-83
2022/12/02 17:54:42;;;;;;;17.42;10.88;;;;;;;1.57;54.33;101944.41;1768572;81;21067;-82
2022/12/02 17:57:12;;;;;;;18.45;10.23;;;;;;;1.57;54.47;101944.41;1769055;80;21082;-81
2022/12/02 17:59:39;;;;;;;18.25;9.25;;;;;;;1.58;54.60;101944.27;1771722;79;21015;-75
2022/12/02 18:02:05;;;;;;;15.50;9.18;;;;;;;1.59;54.61;101945.91;1800905;78;21125;-73
2022/12/02 18:04:33;;;;;;;13.38;8.43;;;;;;;1.56;54.50;101942.28;1786407;79;20843;-81
2022/12/02 18:07:00;;;;;;;15.10;8.80;;;;;;;1.57;54.55;101947.05;1793781;78;20951;-82
2022/12/02 18:26:45;;;;;;;14.03;9.10;;;;;;;1.97;55.25;101942.27;1835365;77;22490;-73
2022/12/02 18:29:12;;;;;;;13.58;9.00;;;;;;;1.93;55.07;101944.91;1799799;79;20948;-72
2022/12/02 18:31:39;;;;;;;11.97;7.65;;;;;;;1.88;55.01;101948.05;1791558;79;21110;-72
